This is the latest recevied weather packets stored in our database for station/object DL2DHM-13. If no packets are shown the sender has not sent any weather packets the latest 10 day(s).
| Time | Temp. | Humidity | Pressure | Rain* | Wind** | Luminosity | Snow |
|---|---|---|---|---|---|---|---|
| 1777586710 | 10.56° C | 60% | 1027.8 hPa | 0 mm | - | 0 W/m² | - |
| 1777584612 | 10.56° C | 62% | 1027.8 hPa | 0 mm | - | 0 W/m² | - |
| 1777584006 | 10.56° C | 63% | 1027.9 hPa | 0 mm | - | 0 W/m² | - |
| 1777581905 | 11.11° C | 60% | 1027.9 hPa | 0 mm | - | 0 W/m² | - |
| 1777581603 | 11.11° C | 60% | 1027.9 hPa | 0 mm | - | 0 W/m² | - |
| 1777581303 | 11.11° C | 60% | 1027.9 hPa | 0 mm | - | 0 W/m² | - |
| 1777581008 | 11.67° C | 59% | 1027.9 hPa | 0 mm | - | 0 W/m² | - |
| 1777580707 | 11.67° C | 59% | 1027.9 hPa | 0 mm | - | 0 W/m² | - |
| 1777580402 | 11.67° C | 59% | 1027.9 hPa | 0 mm | - | 0 W/m² | - |
| 1777578602 | 12.22° C | 57% | 1027.7 hPa | 0 mm | - | 0 W/m² | - |
| 1777576860 | 12.78° C | 55% | 1027.4 hPa | 0 mm | - | 0 W/m² | - |
| 1777573258 | 15.56° C | 47% | 1027 hPa | 0 mm | - | 12 W/m² | - |
| 1777570260 | 17.22° C | 41% | 1026.9 hPa | 0 mm | - | 28 W/m² | - |
| 1777569363 | 17.78° C | 40% | 1026.9 hPa | 0 mm | - | 33 W/m² | - |
| 1777569054 | 17.78° C | 41% | 1027 hPa | 0 mm | - | 49 W/m² | - |
| 1777562146 | 18.89° C | 35% | 1027.3 hPa | 0 mm | - | 476 W/m² | - |
| 1777561247 | 18.89° C | 36% | 1027.5 hPa | 0 mm | - | 513 W/m² | - |
| 1777558236 | 18.33° C | 36% | 1027.9 hPa | 0 mm | - | 606 W/m² | - |
| 1777556739 | 18.33° C | 36% | 1028.2 hPa | 0 mm | - | 659 W/m² | - |
| 1777556132 | 18.33° C | 34% | 1028.2 hPa | 0 mm | - | 664 W/m² | - |
| 1777554327 | 17.78° C | 34% | 1028.6 hPa | 0 mm | - | 714 W/m² | - |
| 1777551926 | 16.67° C | 36% | 1029 hPa | 0 mm | - | 747 W/m² | - |
| 1777551622 | 16.67° C | 32% | 1029.1 hPa | 0 mm | - | 754 W/m² | - |
| 1777551021 | 16.67° C | 34% | 1029.2 hPa | 0 mm | - | 758 W/m² | - |
| 1777549818 | 16.11° C | 33% | 1029.4 hPa | 0 mm | - | 763 W/m² | - |
* Rain latest hour (hover to see other rain measurements)
** Current wind speed in m/s (hover to see current wind gust speed)